Time;durP1;ratioP1;P1;durP2;ratioP2;P2;SDS_P1;SDS_P2;PMS_P1;PMS_P2;Temp;Humidity;BMP_temperature;BMP_pressure;BME280_temperature;BME280_humidity;BME280_pressure;Samples;Min_cycle;Max_cycle;Signal;HPM_P1;HPM_P2
2022/10/26 00:01:10;;;;;;;9.98;7.85;;;;;;;12.06;100.00;99424.20;1686657;84;20996;-75
2022/10/26 00:03:37;;;;;;;9.38;7.85;;;;;;;12.04;100.00;99427.24;1689818;84;21021;-73
2022/10/26 00:06:10;;;;;;;8.78;7.75;;;;;;;12.04;100.00;99433.25;1668369;83;21331;-75
2022/10/26 00:08:37;;;;;;;10.15;7.60;;;;;;;12.04;100.00;99431.34;1686140;84;20989;-73
2022/10/26 00:11:05;;;;;;;7.92;6.78;;;;;;;12.05;100.00;99438.94;1688896;84;21001;-74
2022/10/26 00:13:33;;;;;;;8.48;6.97;;;;;;;12.02;100.00;99434.89;1690709;84;21593;-75
2022/10/26 00:16:00;;;;;;;9.63;7.00;;;;;;;12.04;100.00;99438.70;1714694;82;20971;-76
2022/10/26 00:18:27;;;;;;;8.23;7.30;;;;;;;12.06;100.00;99440.03;1712914;83;21035;-75
2022/10/26 00:20:54;;;;;;;9.38;7.50;;;;;;;12.08;100.00;99435.09;1688492;84;21735;-80
2022/10/26 00:23:21;;;;;;;8.25;7.35;;;;;;;12.07;100.00;99434.84;1688176;84;22330;-74
2022/10/26 00:25:55;;;;;;;;;;;;;;;12.06;100.00;99445.48;1691746;84;21612;-74
2022/10/26 00:28:22;;;;;;;10.18;8.35;;;;;;;12.02;100.00;99443.07;1686437;84;20477;-80
2022/10/26 00:30:49;;;;;;;9.23;7.42;;;;;;;11.95;100.00;99446.14;1685388;84;21044;-80
2022/10/26 00:33:15;;;;;;;;;;;;;;;11.96;100.00;99447.78;1689501;84;21285;-75
2022/10/26 00:35:45;;;;;;;12.18;8.80;;;;;;;11.98;100.00;99447.47;1695634;84;20423;-74
2022/10/26 00:38:12;;;;;;;9.70;8.28;;;;;;;11.93;100.00;99447.54;1632133;85;21708;-80
2022/10/26 00:40:39;;;;;;;8.90;7.90;;;;;;;11.90;100.00;99447.54;1659175;84;21111;-75
2022/10/26 00:43:24;;;;;;;12.43;8.53;;;;;;;11.90;100.00;99444.02;1719896;81;21137;-75
2022/10/26 00:45:50;;;;;;;11.70;8.28;;;;;;;11.89;100.00;99449.20;1708843;81;21025;-78
2022/10/26 00:48:31;;;;;;;11.40;8.35;;;;;;;11.88;100.00;99443.48;1723410;81;21183;-76
2022/10/26 00:50:59;;;;;;;11.15;7.87;;;;;;;11.87;100.00;99445.39;1689136;83;21063;-79
2022/10/26 00:53:27;;;;;;;9.50;8.38;;;;;;;11.88;100.00;99447.57;1667761;83;21129;-74
2022/10/26 00:55:53;;;;;;;;;;;;;;;11.91;100.00;99447.81;1674950;83;21055;-73
2022/10/26 00:58:20;;;;;;;10.98;8.08;;;;;;;11.94;100.00;99443.14;1672378;83;20127;-76
2022/10/26 01:00:47;;;;;;;10.05;7.53;;;;;;;11.88;100.00;99447.57;1717996;81;20998;-76
2022/10/26 01:03:13;;;;;;;;;;;;;;;11.88;100.00;99447.03;1724097;81;21655;-74
2022/10/26 01:05:42;;;;;;;10.93;8.70;;;;;;;11.90;100.00;99448.11;1726461;81;20284;-76
2022/10/26 01:08:09;;;;;;;9.88;8.60;;;;;;;11.86;100.00;99446.52;1722398;81;21484;-73
2022/10/26 01:10:35;;;;;;;;;;;;;;;11.89;100.00;99455.48;1718042;81;20993;-73
2022/10/26 01:13:03;;;;;;;10.45;8.33;;;;;;;11.92;100.00;99452.72;1717134;81;20161;-73
2022/10/26 01:15:50;;;;;;;10.23;8.23;;;;;;;11.89;100.00;99453.30;1725292;81;21660;-72
2022/10/26 01:18:33;;;;;;;12.03;9.30;;;;;;;11.90;100.00;99461.75;1717383;82;21051;-77
2022/10/26 01:21:23;;;;;;;10.88;8.73;;;;;;;11.91;100.00;99453.81;1727383;81;21051;-74
2022/10/26 01:23:59;;;;;;;13.62;8.33;;;;;;;11.87;100.00;99449.48;1720837;81;21067;-74
2022/10/26 01:27:02;;;;;;;14.05;8.95;;;;;;;11.85;100.00;99453.06;1717726;81;21163;-74
2022/10/26 01:29:46;;;;;;;10.28;8.80;;;;;;;11.87;100.00;99446.75;1717094;81;21046;-78
2022/10/26 01:32:33;;;;;;;8.58;7.65;;;;;;;11.87;100.00;99450.03;1718972;81;21121;-75
2022/10/26 01:35:09;;;;;;;9.33;7.97;;;;;;;11.89;100.00;99450.03;1708274;81;21483;-74
2022/10/26 01:37:40;;;;;;;12.37;8.40;;;;;;;11.90;100.00;99454.94;1730528;81;21083;-76
2022/10/26 01:40:19;;;;;;;10.60;8.50;;;;;;;11.90;100.00;99450.84;1739714;81;21061;-75
2022/10/26 01:42:48;;;;;;;9.70;8.33;;;;;;;11.92;100.00;99449.99;1730703;81;21468;-75
2022/10/26 01:45:15;;;;;;;10.13;8.55;;;;;;;11.95;100.00;99450.78;1747818;81;21043;-76
2022/10/26 01:47:42;;;;;;;12.78;9.00;;;;;;;11.96;100.00;99449.14;1739703;81;21088;-75
2022/10/26 01:52:21;;;;;;;10.33;8.53;;;;;;;12.05;100.00;99441.67;1853753;75;23344;-72
2022/10/26 01:54:48;;;;;;;12.05;9.20;;;;;;;11.97;100.00;99454.05;1860397;76;21936;-76
2022/10/26 01:57:18;;;;;;;11.45;8.75;;;;;;;12.00;100.00;99462.20;1860849;75;21058;-73
2022/10/26 02:00:06;;;;;;;11.15;8.98;;;;;;;12.01;100.00;99461.11;1859599;75;20960;-73
2022/10/26 02:03:01;;;;;;;12.05;8.68;;;;;;;12.01;100.00;99457.80;1852132;75;21500;-73
2022/10/26 02:05:57;;;;;;;11.75;8.88;;;;;;;12.02;100.00;99464.08;1867345;75;21047;-71
2022/10/26 02:08:38;;;;;;;10.80;8.93;;;;;;;12.03;100.00;99462.44;1848394;77;21079;-73
2022/10/26 02:11:32;;;;;;;11.30;8.35;;;;;;;12.03;100.00;99467.89;1851664;76;21059;-73
2022/10/26 02:14:16;;;;;;;12.03;9.40;;;;;;;12.04;100.00;99469.53;1852911;75;21011;-73
2022/10/26 02:16:55;;;;;;;12.00;9.30;;;;;;;12.05;100.00;99468.95;1849896;76;21055;-74
2022/10/26 02:19:46;;;;;;;10.78;9.30;;;;;;;12.04;100.00;99464.08;1853478;75;21429;-73
2022/10/26 02:22:20;;;;;;;11.05;8.83;;;;;;;12.03;100.00;99465.71;1851707;75;21047;-73
2022/10/26 02:24:49;;;;;;;12.05;8.93;;;;;;;11.99;100.00;99473.66;1860061;75;21039;-73
2022/10/26 02:27:24;;;;;;;10.70;9.03;;;;;;;11.96;100.00;99465.51;1853743;75;21101;-73
2022/10/26 02:29:51;;;;;;;9.95;8.65;;;;;;;11.97;100.00;99474.51;1866525;75;21047;-73
2022/10/26 02:32:18;;;;;;;12.25;8.75;;;;;;;11.95;100.00;99473.42;1828549;77;21055;-73
2022/10/26 02:34:45;;;;;;;11.43;8.63;;;;;;;11.96;100.00;99469.59;1862839;75;21611;-73
2022/10/26 02:37:12;;;;;;;10.58;8.08;;;;;;;11.99;100.00;99473.66;1860755;75;21514;-73
2022/10/26 02:39:39;;;;;;;13.48;8.35;;;;;;;12.03;100.00;99473.89;1856376;75;20982;-73
2022/10/26 02:42:06;;;;;;;10.45;8.60;;;;;;;12.04;100.00;99474.17;1832682;77;21062;-74
2022/10/26 02:44:43;;;;;;;12.47;9.33;;;;;;;12.02;100.00;99473.08;1856151;75;20984;-73
2022/10/26 02:47:10;;;;;;;13.98;8.85;;;;;;;12.02;100.00;99467.63;1850668;75;21538;-73
2022/10/26 02:49:37;;;;;;;;;;;;;;;12.05;100.00;99469.77;1856129;76;21086;-73
2022/10/26 02:52:15;;;;;;;10.65;7.83;;;;;;;12.05;100.00;99475.77;1846701;75;20135;-73
2022/10/26 02:54:56;;;;;;;10.05;7.58;;;;;;;12.03;100.00;99482.08;1859636;76;21093;-74
2022/10/26 02:57:32;;;;;;;10.65;8.40;;;;;;;12.05;100.00;99477.95;1858222;75;21033;-73
2022/10/26 03:00:00;;;;;;;10.30;7.30;;;;;;;12.07;100.00;99475.77;1856211;75;21906;-73
2022/10/26 03:02:26;;;;;;;9.25;7.40;;;;;;;12.09;100.00;99479.02;1862549;76;21546;-72
2022/10/26 03:04:53;;;;;;;;;;;;;;;12.09;100.00;99474.10;1859825;76;20963;-72
2022/10/26 03:07:23;;;;;;;8.45;6.67;;;;;;;12.05;100.00;99479.32;1818255;77;20127;-72
2022/10/26 03:09:50;;;;;;;10.10;7.28;;;;;;;12.00;100.00;99481.30;1791608;78;21003;-72
2022/10/26 03:12:16;;;;;;;10.25;7.12;;;;;;;12.01;100.00;99484.30;1787179;79;21070;-72
2022/10/26 03:14:43;;;;;;;8.70;7.20;;;;;;;12.05;100.00;99483.96;1785111;78;20991;-73
2022/10/26 03:17:10;;;;;;;12.18;7.70;;;;;;;12.06;100.00;99488.32;1792685;78;21096;-73
2022/10/26 03:19:36;;;;;;;;;;;;;;;12.06;100.00;99485.05;1812732;77;21553;-74
2022/10/26 03:22:02;;;;;;;8.70;7.53;;;;;;;12.07;100.00;99484.50;1789698;78;20133;-73
2022/10/26 03:24:30;;;;;;;10.65;7.03;;;;;;;12.02;100.00;99490.81;1783227;79;21052;-74
2022/10/26 03:26:56;;;;;;;;;;;;;;;12.02;100.00;99481.81;1793495;77;21414;-73
2022/10/26 03:29:22;;;;;;;11.00;7.80;;;;;;;12.06;100.00;99482.87;1815371;77;20155;-76
2022/10/26 03:31:53;;;;;;;10.43;7.60;;;;;;;12.03;100.00;99482.90;1815682;77;21557;-76
2022/10/26 03:34:19;;;;;;;8.05;6.60;;;;;;;12.05;100.00;99483.41;1792311;79;21478;-77
2022/10/26 03:36:47;;;;;;;8.90;6.92;;;;;;;12.07;100.00;99487.23;1792805;79;21546;-74
2022/10/26 03:39:15;;;;;;;9.73;6.78;;;;;;;12.06;100.00;99491.88;1800738;78;21029;-74
2022/10/26 03:41:41;;;;;;;;;;;;;;;12.06;100.00;99484.23;1804691;79;21163;-74
2022/10/26 03:44:07;;;;;;;11.53;7.22;;;;;;;12.08;100.00;99488.29;1796112;79;20464;-74
2022/10/26 03:46:34;;;;;;;8.55;7.30;;;;;;;12.02;100.00;99483.99;1805390;78;21023;-74
2022/10/26 03:49:00;;;;;;;11.88;7.65;;;;;;;12.01;100.00;99492.48;1799241;79;20974;-73
2022/10/26 03:51:29;;;;;;;9.43;6.70;;;;;;;12.02;100.00;99488.08;1807243;78;21049;-75
2022/10/26 03:53:55;;;;;;;13.78;7.25;;;;;;;12.04;100.00;99489.99;1808872;78;21029;-74
2022/10/26 03:56:22;;;;;;;;;;;;;;;12.06;100.00;99486.95;1792071;78;21053;-74
2022/10/26 03:58:48;;;;;;;9.38;6.87;;;;;;;12.08;100.00;99490.23;1800535;78;20139;-74
2022/10/26 04:01:15;;;;;;;10.43;7.03;;;;;;;12.02;100.00;99486.72;1794600;78;21486;-74
2022/10/26 04:03:41;;;;;;;9.83;6.80;;;;;;;12.04;100.00;99487.27;1797301;78;21082;-74
2022/10/26 04:06:08;;;;;;;11.53;7.20;;;;;;;12.06;100.00;99489.69;1775310;79;21073;-74
2022/10/26 04:08:34;;;;;;;8.55;6.95;;;;;;;12.10;100.00;99481.20;1789091;79;21606;-72
2022/10/26 04:11:01;;;;;;;10.40;7.15;;;;;;;12.13;100.00;99487.44;1803659;79;21081;-74
2022/10/26 04:13:27;;;;;;;9.58;6.95;;;;;;;12.14;100.00;99481.70;1804858;79;21050;-74
2022/10/26 04:15:54;;;;;;;11.28;6.92;;;;;;;12.15;100.00;99483.89;1813466;78;21054;-74
2022/10/26 04:18:20;;;;;;;10.63;7.58;;;;;;;12.14;100.00;99487.16;1786347;79;21050;-74
2022/10/26 04:20:47;;;;;;;7.78;6.80;;;;;;;12.18;100.00;99481.39;1788833;78;21059;-74
2022/10/26 04:23:15;;;;;;;10.38;7.37;;;;;;;12.20;100.00;99481.09;1797590;79;21118;-74
2022/10/26 04:25:43;;;;;;;10.85;7.35;;;;;;;12.22;100.00;99482.42;1801844;78;20962;-74
2022/10/26 04:28:10;;;;;;;15.10;7.17;;;;;;;12.23;100.00;99478.59;1800401;78;21033;-75
2022/10/26 04:30:37;;;;;;;11.93;7.60;;;;;;;12.24;100.00;99482.97;1803136;78;21477;-74
2022/10/26 04:33:04;;;;;;;9.20;7.53;;;;;;;12.26;100.00;99485.39;1766151;79;21053;-74
2022/10/26 04:35:30;;;;;;;11.20;7.42;;;;;;;12.26;100.00;99479.38;1806530;78;21041;-74
2022/10/26 04:37:58;;;;;;;10.03;7.45;;;;;;;12.28;100.00;99484.56;1801184;78;21098;-74
2022/10/26 04:40:26;;;;;;;9.88;7.80;;;;;;;12.28;100.00;99482.66;1806033;78;20928;-74
2022/10/26 04:42:53;;;;;;;11.08;7.62;;;;;;;12.27;100.00;99485.11;1813850;79;21519;-73
2022/10/26 04:45:20;;;;;;;9.05;7.35;;;;;;;12.29;100.00;99482.11;1802234;78;21804;-74
2022/10/26 04:47:46;;;;;;;10.63;8.10;;;;;;;12.30;100.00;99480.98;1798431;78;21090;-73
2022/10/26 04:50:14;;;;;;;11.63;7.70;;;;;;;12.31;100.00;99481.25;1800785;78;20987;-73
2022/10/26 04:52:40;;;;;;;9.93;7.72;;;;;;;12.32;100.00;99474.70;1792062;79;20994;-73
2022/10/26 04:55:08;;;;;;;10.10;7.80;;;;;;;12.32;100.00;99478.80;1791454;79;21091;-74
2022/10/26 04:57:35;;;;;;;11.53;7.90;;;;;;;12.32;100.00;99477.43;1768033;79;21615;-74
2022/10/26 05:00:02;;;;;;;;;;;;;;;12.33;100.00;99481.22;1791318;79;21011;-74
2022/10/26 05:02:29;;;;;;;11.05;7.58;;;;;;;12.33;100.00;99474.39;1811617;78;20518;-74
2022/10/26 05:04:55;;;;;;;10.70;7.87;;;;;;;12.29;100.00;99486.20;1794217;79;21022;-74
2022/10/26 05:07:22;;;;;;;;;;;;;;;12.29;100.00;99485.63;1803881;78;21045;-73
2022/10/26 05:09:48;;;;;;;10.93;7.78;;;;;;;12.32;100.00;99485.07;1766224;79;20139;-73
2022/10/26 09:28:51;;;;;;;13.13;7.43;;;;;;;13.49;100.00;99627.16;1786386;78;27757;-75
2022/10/26 09:31:17;;;;;;;9.18;7.25;;;;;;;13.56;100.00;99638.55;1758128;81;21071;-71
2022/10/26 09:33:44;;;;;;;8.58;6.08;;;;;;;13.68;100.00;99641.10;1733242;81;21573;-71
2022/10/26 09:36:18;;;;;;;10.48;6.40;;;;;;;13.77;100.00;99638.53;1757627;81;21072;-71
2022/10/26 09:39:13;;;;;;;9.55;5.83;;;;;;;13.86;100.00;99632.64;1755861;81;21922;-69
2022/10/26 09:41:59;;;;;;;7.30;5.50;;;;;;;14.01;100.00;99635.72;1757354;80;21135;-73
2022/10/26 09:44:41;;;;;;;9.38;5.55;;;;;;;14.14;100.00;99630.85;1756926;81;21111;-70
2022/10/26 09:47:23;;;;;;;8.65;5.00;;;;;;;14.26;100.00;99625.19;1755827;80;21107;-71
2022/10/26 09:50:01;;;;;;;8.15;5.40;;;;;;;14.43;100.00;99626.86;1741435;82;21060;-71
2022/10/26 09:52:28;;;;;;;14.35;5.58;;;;;;;14.52;100.00;99615.22;1691546;85;21621;-71
2022/10/26 09:54:55;;;;;;;;;;;;;;;14.59;100.00;99626.60;1694182;85;21094;-70
2022/10/26 09:57:22;;;;;;;7.37;5.30;;;;;;;14.67;100.00;99617.12;1755929;81;20128;-71
2022/10/26 09:59:51;;;;;;;9.73;5.28;;;;;;;14.72;100.00;99612.93;1757157;81;21064;-70
2022/10/26 10:02:36;;;;;;;7.83;5.37;;;;;;;14.82;100.00;99603.14;1757132;81;21926;-69
2022/10/26 10:05:26;;;;;;;9.65;5.12;;;;;;;15.02;100.00;99624.44;1757497;81;21583;-70
2022/10/26 10:08:18;;;;;;;9.83;5.83;;;;;;;15.14;100.00;99620.07;1750756;81;21185;-69
2022/10/26 10:11:05;;;;;;;6.85;5.55;;;;;;;15.24;100.00;99615.75;1757070;81;21648;-70
2022/10/26 10:13:35;;;;;;;6.83;5.92;;;;;;;15.40;100.00;99617.08;1757088;81;21094;-69
2022/10/26 10:16:11;;;;;;;10.58;6.78;;;;;;;15.65;100.00;99621.24;1758426;81;21086;-71
2022/10/26 10:18:38;;;;;;;14.73;7.15;;;;;;;15.68;100.00;99621.17;1727860;81;21032;-70
2022/10/26 10:21:06;;;;;;;10.43;6.70;;;;;;;15.61;100.00;99624.90;1727590;83;21016;-70
2022/10/26 10:23:36;;;;;;;;;;;;;;;15.48;100.00;99623.75;1739787;81;21107;-71
2022/10/26 10:26:12;;;;;;;9.30;5.95;;;;;;;15.35;100.00;99635.00;1759224;81;20129;-69
2022/10/26 10:28:41;;;;;;;11.18;6.50;;;;;;;15.11;100.00;99629.46;1759090;81;21103;-73
2022/10/26 10:31:21;;;;;;;9.93;6.12;;;;;;;14.86;100.00;99628.02;1758642;81;21040;-72
2022/10/26 10:33:48;;;;;;;7.70;5.10;;;;;;;14.66;100.00;99635.24;1759168;81;21000;-74
2022/10/26 10:36:28;;;;;;;8.03;4.40;;;;;;;14.47;100.00;99627.63;1749592;81;21004;-74
2022/10/26 10:38:55;;;;;;;7.83;4.17;;;;;;;14.32;100.00;99632.20;1727127;83;21586;-74
2022/10/26 10:41:36;;;;;;;6.55;4.42;;;;;;;14.27;100.00;99630.94;1727044;83;21012;-74
2022/10/26 10:44:21;;;;;;;7.35;4.45;;;;;;;14.24;100.00;99638.35;1699031;83;21123;-74
2022/10/26 10:46:47;;;;;;;6.78;4.90;;;;;;;14.24;100.00;99636.98;1739156;81;21012;-73
2022/10/26 10:49:24;;;;;;;;;;;;;;;14.25;100.00;99637.80;1761228;81;20985;-74
2022/10/26 10:51:51;;;;;;;9.65;6.62;;;;;;;14.28;100.00;99635.83;1758890;81;20498;-73
2022/10/26 10:54:32;;;;;;;8.85;6.45;;;;;;;14.24;100.00;99640.30;1758744;81;21056;-73
2022/10/26 10:57:23;;;;;;;14.80;6.90;;;;;;;14.30;100.00;99637.73;1755683;81;21091;-73
2022/10/26 11:00:05;;;;;;;12.50;7.78;;;;;;;14.54;100.00;99639.00;1758727;81;20997;-73
2022/10/26 11:03:04;;;;;;;9.40;7.55;;;;;;;14.84;100.00;99646.70;1758453;81;21048;-73
2022/10/26 11:05:42;;;;;;;10.45;7.28;;;;;;;15.07;100.00;99655.30;1757350;81;20982;-73
2022/10/26 11:08:20;;;;;;;9.28;6.55;;;;;;;15.22;100.00;99646.79;1758475;80;21052;-72
2022/10/26 11:10:54;;;;;;;11.53;6.50;;;;;;;15.34;100.00;99648.45;1758752;81;21009;-69
2022/10/26 11:13:30;;;;;;;9.05;7.17;;;;;;;15.28;100.00;99652.98;1758503;80;21028;-73
2022/10/26 11:16:01;;;;;;;9.35;6.90;;;;;;;15.18;100.00;99634.80;1757424;81;21002;-70
2022/10/26 11:18:48;;;;;;;8.33;6.03;;;;;;;15.07;100.00;99640.78;1758293;80;21031;-68
2022/10/26 11:21:30;;;;;;;10.30;6.50;;;;;;;15.02;100.00;99641.68;1728777;81;20995;-69
2022/10/26 11:24:26;;;;;;;8.70;6.37;;;;;;;14.92;100.00;99636.39;1772686;80;21099;-70
2022/10/26 11:27:16;;;;;;;9.15;6.10;;;;;;;14.83;100.00;99640.41;1754586;80;21035;-70
2022/10/26 11:30:14;;;;;;;9.18;5.97;;;;;;;14.77;100.00;99646.28;1757450;81;21020;-72
2022/10/26 11:33:10;;;;;;;8.13;6.30;;;;;;;14.75;100.00;99645.75;1758671;80;21099;-69
2022/10/26 11:35:59;;;;;;;8.70;6.03;;;;;;;14.65;100.00;99644.56;1758620;81;20980;-72
2022/10/26 11:38:51;;;;;;;7.85;5.72;;;;;;;14.56;100.00;99642.27;1758314;80;21628;-71
2022/10/26 11:41:41;;;;;;;11.65;6.28;;;;;;;14.52;100.00;99645.35;1758525;81;20992;-73
2022/10/26 11:44:16;;;;;;;8.28;5.92;;;;;;;14.45;100.00;99642.41;1754565;81;21063;-71
2022/10/26 11:46:53;;;;;;;9.30;6.30;;;;;;;14.37;100.00;99640.38;1758623;81;21000;-69
2022/10/26 11:49:25;;;;;;;10.45;6.28;;;;;;;14.28;100.00;99644.86;1756704;80;20957;-68
2022/10/26 11:52:26;;;;;;;10.63;6.85;;;;;;;14.27;100.00;99645.17;1756968;81;21004;-67
2022/10/26 11:55:01;;;;;;;9.60;6.47;;;;;;;14.23;100.00;99644.96;1755705;81;21796;-66
2022/10/26 11:57:27;;;;;;;11.15;7.35;;;;;;;14.22;100.00;99647.43;1753105;80;21664;-67
2022/10/26 12:00:02;;;;;;;9.98;7.03;;;;;;;14.24;100.00;99647.94;1754685;81;20992;-67
2022/10/26 12:02:31;;;;;;;9.58;7.00;;;;;;;14.26;100.00;99650.39;1734748;81;21131;-69
2022/10/26 12:05:42;;;;;;;11.38;7.40;;;;;;;14.22;100.00;99652.91;1734887;81;21637;-67
2022/10/26 12:08:14;;;;;;;10.28;6.90;;;;;;;14.22;100.00;99655.64;1746336;81;21036;-68
2022/10/26 12:10:42;;;;;;;13.72;8.53;;;;;;;14.22;100.00;99654.28;1746613;81;21524;-72
2022/10/26 12:13:37;;;;;;;11.48;7.97;;;;;;;14.21;100.00;99652.64;1758050;80;21024;-70
2022/10/26 12:16:25;;;;;;;14.20;8.20;;;;;;;14.26;100.00;99651.20;1717974;82;20961;-70
2022/10/26 12:18:59;;;;;;;11.83;7.40;;;;;;;14.33;100.00;99659.04;1745438;81;21019;-72
2022/10/26 12:21:30;;;;;;;10.90;7.60;;;;;;;14.33;100.00;99659.04;1728348;81;20979;-68
2022/10/26 12:24:24;;;;;;;10.63;7.95;;;;;;;14.38;100.00;99658.42;1756967;80;21079;-73
2022/10/26 12:26:59;;;;;;;11.80;7.60;;;;;;;14.39;100.00;99660.05;1743618;81;21504;-74
2022/10/26 12:29:29;;;;;;;10.58;8.25;;;;;;;14.39;100.00;99656.50;1759155;81;20978;-73
2022/10/26 12:31:57;;;;;;;12.05;7.80;;;;;;;14.36;100.00;99662.02;1759518;81;20948;-71
2022/10/26 12:34:41;;;;;;;12.37;7.92;;;;;;;14.33;100.00;99654.93;1734217;81;20988;-73
2022/10/26 12:37:20;;;;;;;11.28;8.33;;;;;;;14.29;100.00;99654.71;1758970;80;21070;-74
2022/10/26 12:39:47;;;;;;;12.18;8.25;;;;;;;14.24;100.00;99657.52;1733771;81;21000;-75
2022/10/26 12:42:17;;;;;;;;;;;;;;;14.22;100.00;99665.78;1755842;81;21131;-73
2022/10/26 12:44:49;;;;;;;13.78;8.30;;;;;;;14.22;100.00;99665.23;1758128;81;20433;-74
2022/10/26 12:47:33;;;;;;;11.83;9.35;;;;;;;14.16;100.00;99676.00;1756966;80;21062;-74
2022/10/26 12:50:06;;;;;;;10.93;9.18;;;;;;;14.14;100.00;99680.13;1757019;81;21335;-73
2022/10/26 12:53:01;;;;;;;12.85;8.58;;;;;;;14.15;100.00;99691.34;1752368;81;21135;-73
2022/10/26 12:55:40;;;;;;;15.48;9.50;;;;;;;14.11;100.00;99685.64;1724156;81;21001;-73
2022/10/26 16:58:49;;;;;;;7.55;4.30;;;;;;;10.86;100.00;99913.16;1793659;78;22942;-69
2022/10/26 17:01:17;;;;;;;5.90;4.20;;;;;;;10.88;100.00;99931.39;1747517;80;21113;-68
2022/10/26 17:04:02;;;;;;;5.87;3.70;;;;;;;11.02;100.00;99928.17;1736372;80;21399;-69
2022/10/26 17:06:38;;;;;;;7.12;3.85;;;;;;;11.15;100.00;99929.82;1743336;80;21069;-68
2022/10/26 17:09:04;;;;;;;7.60;4.12;;;;;;;11.26;100.00;99936.92;1728928;80;21438;-69
2022/10/26 17:11:31;;;;;;;6.22;3.72;;;;;;;11.35;100.00;99933.91;1740804;80;21031;-69
2022/10/26 17:13:57;;;;;;;;;;;;;;;11.46;100.00;99941.01;1751361;80;21305;-68
2022/10/26 17:16:24;;;;;;;6.12;3.98;;;;;;;11.54;100.00;99937.47;1744267;80;20106;-69
2022/10/26 17:18:51;;;;;;;5.75;4.25;;;;;;;11.58;100.00;99934.47;1727092;80;21548;-68
2022/10/26 17:21:29;;;;;;;6.17;3.70;;;;;;;11.64;100.00;99930.64;1744024;80;21549;-68
2022/10/26 17:23:55;;;;;;;5.40;3.75;;;;;;;11.70;100.00;99934.99;1710423;81;20955;-68
2022/10/26 17:26:21;;;;;;;4.92;3.65;;;;;;;11.76;100.00;99930.64;1722207;83;21098;-69
2022/10/26 17:28:54;;;;;;;6.67;3.77;;;;;;;11.79;100.00;99932.84;1731978;80;21011;-68
2022/10/26 17:31:20;;;;;;;7.40;3.83;;;;;;;11.83;100.00;99940.73;1736844;80;21015;-68
2022/10/26 17:33:50;;;;;;;5.28;3.90;;;;;;;11.85;100.00;99940.47;1726262;80;20994;-68
2022/10/26 17:36:20;;;;;;;6.87;4.92;;;;;;;11.86;100.00;99937.48;1731790;80;21027;-68
2022/10/26 17:38:49;;;;;;;8.85;5.03;;;;;;;11.88;100.00;99938.55;1733746;80;20987;-68
2022/10/26 17:41:17;;;;;;;11.75;5.37;;;;;;;11.89;100.00;99942.92;1732858;80;21011;-69
2022/10/26 17:43:44;;;;;;;8.88;5.37;;;;;;;11.90;100.00;99948.08;1747697;80;20998;-71
2022/10/26 17:46:17;;;;;;;8.68;5.17;;;;;;;11.94;100.00;99952.44;1739198;82;21393;-70
2022/10/26 17:48:43;;;;;;;8.93;6.08;;;;;;;11.94;100.00;99949.17;1726754;82;20991;-70
2022/10/26 17:51:14;;;;;;;;;;;;;;;11.95;100.00;99950.00;1724756;82;21137;-70
2022/10/26 17:53:40;;;;;;;9.85;6.58;;;;;;;11.94;100.00;99940.98;1748160;80;20118;-71
2022/10/26 17:56:09;;;;;;;;;;;;;;;11.90;100.00;99950.81;1745964;81;21082;-70
2022/10/26 17:58:36;;;;;;;8.88;5.80;;;;;;;11.91;100.00;99958.45;1725830;82;20441;-69
2022/10/26 18:01:06;;;;;;;8.88;5.97;;;;;;;11.82;100.00;99952.75;1734326;81;21027;-71
2022/10/26 18:03:32;;;;;;;7.58;5.70;;;;;;;11.85;100.00;99949.47;1726158;81;21356;-71
2022/10/26 18:05:58;;;;;;;;;;;;;;;11.86;100.00;99955.20;1725486;82;21023;-70
2022/10/26 18:08:25;;;;;;;7.42;4.78;;;;;;;11.86;100.00;99956.57;1725373;81;20134;-70
2022/10/26 18:10:58;;;;;;;7.65;4.97;;;;;;;11.81;100.00;99953.84;1725763;82;20998;-70
2022/10/26 18:13:23;;;;;;;8.53;5.20;;;;;;;11.83;100.00;99957.09;1712044;82;20987;-69
2022/10/26 18:15:50;;;;;;;8.55;5.22;;;;;;;11.84;100.00;99963.37;1716661;82;21038;-71
2022/10/26 18:18:16;;;;;;;;;;;;;;;11.84;100.00;99964.20;1728121;82;21000;-70
2022/10/26 18:20:42;;;;;;;10.58;5.20;;;;;;;11.86;100.00;99966.66;1735925;81;20107;-70
2022/10/26 18:23:10;;;;;;;9.25;4.78;;;;;;;11.78;100.00;99963.11;1728039;81;21609;-69
2022/10/26 18:25:36;;;;;;;10.08;4.87;;;;;;;11.79;100.00;99966.12;1734466;82;21047;-72
2022/10/26 18:28:04;;;;;;;7.60;4.20;;;;;;;11.79;100.00;99972.40;1660085;84;21086;-72
2022/10/26 18:30:32;;;;;;;7.35;4.42;;;;;;;11.82;100.00;99981.94;1691728;83;21011;-71
2022/10/26 18:33:00;;;;;;;5.90;4.10;;;;;;;11.84;100.00;99977.83;1669765;83;21402;-71
2022/10/26 18:35:26;;;;;;;;;;;;;;;11.84;100.00;99979.20;1717779;83;21516;-69
2022/10/26 18:37:53;;;;;;;6.45;3.90;;;;;;;11.86;100.00;99983.03;1725427;83;20438;-71
2022/10/26 18:40:20;;;;;;;8.18;4.08;;;;;;;11.82;100.00;99973.75;1722480;82;21031;-71
2022/10/26 18:42:46;;;;;;;8.93;3.90;;;;;;;11.82;100.00;99980.03;1724763;81;21051;-68
2022/10/26 18:45:14;;;;;;;6.45;4.37;;;;;;;11.85;100.00;99989.56;1722233;81;21016;-68
2022/10/26 18:47:41;;;;;;;8.05;3.70;;;;;;;11.84;100.00;99986.02;1726827;83;21037;-69
2022/10/26 18:50:08;;;;;;;9.80;4.03;;;;;;;11.82;100.00;99990.12;1718963;82;21059;-69
2022/10/26 18:52:34;;;;;;;5.53;3.00;;;;;;;11.81;100.00;99989.30;1723340;83;21031;-70
2022/10/26 18:55:01;;;;;;;7.20;3.40;;;;;;;11.79;100.00;99994.22;1690662;83;21035;-69
2022/10/26 18:57:29;;;;;;;6.53;3.50;;;;;;;11.77;100.00;99997.75;1682047;84;21574;-69
2022/10/26 18:59:56;;;;;;;7.85;3.50;;;;;;;11.75;100.00;100001.84;1680424;84;21101;-71
2022/10/26 19:02:22;;;;;;;6.00;3.60;;;;;;;11.72;100.00;100003.22;1671576;84;21050;-69
2022/10/26 19:04:50;;;;;;;;;;;;;;;11.71;100.00;100006.20;1660354;85;21052;-68
2022/10/26 19:07:16;;;;;;;9.90;4.17;;;;;;;11.68;100.00;100015.73;1649763;85;20144;-72
2022/10/26 19:09:43;;;;;;;8.05;4.03;;;;;;;11.62;100.00;100009.19;1657334;85;21474;-70
2022/10/26 19:12:09;;;;;;;;;;;;;;;11.62;100.00;100009.19;1667504;85;21043;-71
2022/10/26 19:14:36;;;;;;;6.60;3.98;;;;;;;11.62;100.00;100018.16;1697098;84;20108;-70
2022/10/26 19:17:03;;;;;;;7.72;4.28;;;;;;;11.57;100.00;100020.07;1711882;82;21027;-70
2022/10/26 19:19:29;;;;;;;7.87;3.90;;;;;;;11.56;100.00;100019.25;1714943;83;21033;-70
2022/10/26 19:21:58;;;;;;;6.70;3.72;;;;;;;11.57;100.00;100018.71;1700290;83;20979;-71
2022/10/26 19:24:25;;;;;;;6.85;4.00;;;;;;;11.57;100.00;100020.07;1713706;83;20992;-70
2022/10/26 19:26:52;;;;;;;;;;;;;;;11.56;100.00;100031.52;1699518;82;21012;-68
2022/10/26 19:29:19;;;;;;;9.90;4.30;;;;;;;11.56;100.00;100023.88;1696279;83;20129;-69
2022/10/26 19:31:49;;;;;;;8.35;3.75;;;;;;;11.49;100.00;100036.42;1697177;83;21111;-69
2022/10/26 19:34:16;;;;;;;7.53;3.80;;;;;;;11.49;100.00;100030.97;1695922;83;21040;-70
2022/10/26 19:36:45;;;;;;;6.58;3.92;;;;;;;11.52;100.00;100033.69;1702145;83;21027;-69
2022/10/26 19:39:18;;;;;;;7.10;3.85;;;;;;;11.49;100.00;100037.23;1675123;83;20983;-70
2022/10/26 19:41:44;;;;;;;6.75;3.67;;;;;;;11.49;100.00;100034.52;1712817;82;21038;-69
2022/10/26 19:44:11;;;;;;;6.65;3.72;;;;;;;11.49;100.00;100039.97;1700551;82;21514;-72
2022/10/26 19:46:38;;;;;;;9.63;4.00;;;;;;;11.48;100.00;100042.95;1704855;82;21545;-69
2022/10/26 19:49:04;;;;;;;7.67;3.65;;;;;;;11.48;100.00;100046.50;1717622;82;21050;-69
2022/10/26 19:51:31;;;;;;;8.15;4.10;;;;;;;11.50;100.00;100051.70;1702393;82;21417;-70
2022/10/26 19:54:00;;;;;;;14.28;5.30;;;;;;;11.49;100.00;100052.77;1702529;83;20995;-70
2022/10/26 19:56:26;;;;;;;9.70;4.67;;;;;;;11.49;100.00;100059.59;1699514;83;21035;-69
2022/10/26 19:58:54;;;;;;;9.83;4.90;;;;;;;11.48;100.00;100062.86;1705624;81;21078;-70
2022/10/26 20:01:20;;;;;;;8.53;4.42;;;;;;;11.47;100.00;100062.61;1701926;82;21052;-69
2022/10/26 20:03:47;;;;;;;11.65;4.15;;;;;;;11.45;100.00;100055.76;1714611;82;21581;-70
2022/10/26 20:06:14;;;;;;;;;;;;;;;11.45;100.00;100062.58;1701051;82;21541;-70
2022/10/26 20:08:44;;;;;;;8.20;4.80;;;;;;;11.44;100.00;100061.75;1698586;82;20386;-70